sensor_id;sensor_type;location;lat;lon;timestamp;P1;durP1;ratioP1;P2;durP2;ratioP2
68507;SDS011;55510;49.560;19.090;2024-03-02T08:01:09;69.70;;;32.28;;
68507;SDS011;55510;49.560;19.090;2024-03-02T08:04:10;61.60;;;32.72;;
68507;SDS011;55510;49.560;19.090;2024-03-02T08:07:10;59.10;;;33.80;;
68507;SDS011;55510;49.560;19.090;2024-03-02T08:10:12;50.15;;;30.25;;
68507;SDS011;55510;49.560;19.090;2024-03-02T08:13:13;45.47;;;26.30;;
68507;SDS011;55510;49.560;19.090;2024-03-02T08:16:15;46.77;;;23.40;;
68507;SDS011;55510;49.560;19.090;2024-03-02T08:19:16;46.10;;;22.55;;
68507;SDS011;55510;49.560;19.090;2024-03-02T08:22:17;47.67;;;23.15;;
68507;SDS011;55510;49.560;19.090;2024-03-02T08:25:17;61.63;;;25.97;;
68507;SDS011;55510;49.560;19.090;2024-03-02T08:28:19;57.10;;;24.90;;
68507;SDS011;55510;49.560;19.090;2024-03-02T08:31:20;50.03;;;25.90;;
68507;SDS011;55510;49.560;19.090;2024-03-02T08:34:21;49.63;;;25.20;;
68507;SDS011;55510;49.560;19.090;2024-03-02T08:37:21;55.92;;;30.05;;
68507;SDS011;55510;49.560;19.090;2024-03-02T08:40:22;44.60;;;25.27;;
68507;SDS011;55510;49.560;19.090;2024-03-02T08:43:22;76.77;;;34.33;;
68507;SDS011;55510;49.560;19.090;2024-03-02T08:46:24;41.35;;;22.77;;
68507;SDS011;55510;49.560;19.090;2024-03-02T08:49:24;38.37;;;20.23;;
68507;SDS011;55510;49.560;19.090;2024-03-02T08:52:25;39.13;;;22.48;;
68507;SDS011;55510;49.560;19.090;2024-03-02T08:55:26;44.07;;;20.50;;
68507;SDS011;55510;49.560;19.090;2024-03-02T08:58:26;38.35;;;20.50;;
68507;SDS011;55510;49.560;19.090;2024-03-02T09:01:27;30.93;;;19.43;;
68507;SDS011;55510;49.560;19.090;2024-03-02T09:04:28;42.40;;;23.10;;
68507;SDS011;55510;49.560;19.090;2024-03-02T09:07:28;35.57;;;20.53;;
68507;SDS011;55510;49.560;19.090;2024-03-02T09:10:29;44.60;;;23.23;;
68507;SDS011;55510;49.560;19.090;2024-03-02T09:13:30;34.30;;;18.73;;
68507;SDS011;55510;49.560;19.090;2024-03-02T09:18:25;32.63;;;18.38;;
68507;SDS011;55510;49.560;19.090;2024-03-02T09:21:26;35.07;;;19.30;;
68507;SDS011;55510;49.560;19.090;2024-03-02T09:24:26;45.33;;;22.92;;
68507;SDS011;55510;49.560;19.090;2024-03-02T09:27:27;50.63;;;25.13;;
68507;SDS011;55510;49.560;19.090;2024-03-02T09:30:28;52.80;;;28.40;;
68507;SDS011;55510;49.560;19.090;2024-03-02T09:33:29;63.20;;;35.85;;
68507;SDS011;55510;49.560;19.090;2024-03-02T09:36:29;61.35;;;33.15;;
68507;SDS011;55510;49.560;19.090;2024-03-02T09:39:30;64.70;;;36.17;;
68507;SDS011;55510;49.560;19.090;2024-03-02T09:42:31;61.43;;;31.63;;
68507;SDS011;55510;49.560;19.090;2024-03-02T09:45:32;81.93;;;40.80;;
68507;SDS011;55510;49.560;19.090;2024-03-02T09:48:34;69.35;;;37.33;;
68507;SDS011;55510;49.560;19.090;2024-03-02T09:51:35;58.30;;;32.50;;
68507;SDS011;55510;49.560;19.090;2024-03-02T09:54:37;54.88;;;30.35;;
68507;SDS011;55510;49.560;19.090;2024-03-02T09:57:37;46.90;;;26.97;;
68507;SDS011;55510;49.560;19.090;2024-03-02T10:00:38;49.27;;;26.63;;
68507;SDS011;55510;49.560;19.090;2024-03-02T10:03:39;44.20;;;25.60;;
68507;SDS011;55510;49.560;19.090;2024-03-02T10:06:39;55.58;;;31.65;;
68507;SDS011;55510;49.560;19.090;2024-03-02T10:09:44;93.13;;;56.13;;
68507;SDS011;55510;49.560;19.090;2024-03-02T10:12:45;73.03;;;41.55;;
68507;SDS011;55510;49.560;19.090;2024-03-02T10:15:46;69.10;;;40.03;;
68507;SDS011;55510;49.560;19.090;2024-03-02T10:18:47;105.60;;;59.95;;
68507;SDS011;55510;49.560;19.090;2024-03-02T10:21:48;107.03;;;59.83;;
68507;SDS011;55510;49.560;19.090;2024-03-02T10:24:52;116.72;;;67.05;;
68507;SDS011;55510;49.560;19.090;2024-03-02T10:27:53;118.90;;;64.05;;
68507;SDS011;55510;49.560;19.090;2024-03-02T10:30:57;92.37;;;50.67;;
68507;SDS011;55510;49.560;19.090;2024-03-02T10:33:58;82.32;;;47.03;;
68507;SDS011;55510;49.560;19.090;2024-03-02T10:36:59;55.28;;;32.45;;
68507;SDS011;55510;49.560;19.090;2024-03-02T10:40:04;51.00;;;29.60;;
68507;SDS011;55510;49.560;19.090;2024-03-02T10:43:05;47.70;;;28.07;;
68507;SDS011;55510;49.560;19.090;2024-03-02T10:46:08;49.70;;;28.38;;
68507;SDS011;55510;49.560;19.090;2024-03-02T10:49:08;68.33;;;34.93;;
68507;SDS011;55510;49.560;19.090;2024-03-02T10:52:09;57.95;;;30.13;;
68507;SDS011;55510;49.560;19.090;2024-03-02T10:55:09;47.63;;;26.47;;
68507;SDS011;55510;49.560;19.090;2024-03-02T10:58:11;50.45;;;28.17;;
68507;SDS011;55510;49.560;19.090;2024-03-02T11:01:12;61.97;;;34.63;;
68507;SDS011;55510;49.560;19.090;2024-03-02T11:04:15;55.88;;;32.72;;
68507;SDS011;55510;49.560;19.090;2024-03-02T11:07:18;58.13;;;33.77;;
68507;SDS011;55510;49.560;19.090;2024-03-02T11:10:20;55.65;;;33.95;;
68507;SDS011;55510;49.560;19.090;2024-03-02T11:13:24;57.90;;;33.20;;
68507;SDS011;55510;49.560;19.090;2024-03-02T11:19:37;95.15;;;51.58;;
68507;SDS011;55510;49.560;19.090;2024-03-02T11:22:39;80.23;;;42.80;;
68507;SDS011;55510;49.560;19.090;2024-03-02T11:25:39;75.15;;;39.90;;
68507;SDS011;55510;49.560;19.090;2024-03-02T11:28:40;71.87;;;38.37;;
68507;SDS011;55510;49.560;19.090;2024-03-02T11:31:59;81.50;;;44.10;;
68507;SDS011;55510;49.560;19.090;2024-03-02T11:35:00;66.13;;;36.20;;
68507;SDS011;55510;49.560;19.090;2024-03-02T11:38:02;63.97;;;34.73;;
68507;SDS011;55510;49.560;19.090;2024-03-02T11:41:07;67.57;;;34.80;;
68507;SDS011;55510;49.560;19.090;2024-03-02T11:44:09;78.00;;;41.50;;
68507;SDS011;55510;49.560;19.090;2024-03-02T11:47:13;91.03;;;52.20;;
68507;SDS011;55510;49.560;19.090;2024-03-02T11:50:15;89.38;;;50.00;;
68507;SDS011;55510;49.560;19.090;2024-03-02T11:53:16;94.83;;;54.63;;
68507;SDS011;55510;49.560;19.090;2024-03-02T11:56:18;98.95;;;52.80;;
68507;SDS011;55510;49.560;19.090;2024-03-02T11:59:21;85.75;;;48.67;;
68507;SDS011;55510;49.560;19.090;2024-03-02T12:02:23;97.82;;;54.45;;
68507;SDS011;55510;49.560;19.090;2024-03-02T12:05:24;89.33;;;50.73;;
68507;SDS011;55510;49.560;19.090;2024-03-02T12:08:26;96.30;;;52.57;;
68507;SDS011;55510;49.560;19.090;2024-03-02T12:11:28;95.30;;;54.40;;
68507;SDS011;55510;49.560;19.090;2024-03-02T12:14:28;99.03;;;54.10;;
68507;SDS011;55510;49.560;19.090;2024-03-02T12:17:29;100.93;;;53.95;;
68507;SDS011;55510;49.560;19.090;2024-03-02T12:20:30;93.17;;;53.43;;
68507;SDS011;55510;49.560;19.090;2024-03-02T12:23:32;105.22;;;59.78;;
68507;SDS011;55510;49.560;19.090;2024-03-02T12:26:32;106.03;;;63.17;;
68507;SDS011;55510;49.560;19.090;2024-03-02T12:29:33;103.13;;;63.20;;
68507;SDS011;55510;49.560;19.090;2024-03-02T12:32:34;83.63;;;47.63;;
68507;SDS011;55510;49.560;19.090;2024-03-02T12:35:35;74.67;;;43.27;;
68507;SDS011;55510;49.560;19.090;2024-03-02T12:38:36;58.10;;;33.33;;
68507;SDS011;55510;49.560;19.090;2024-03-02T12:41:37;45.17;;;26.10;;
68507;SDS011;55510;49.560;19.090;2024-03-02T12:44:38;40.20;;;23.63;;
68507;SDS011;55510;49.560;19.090;2024-03-02T12:47:40;38.22;;;21.10;;
68507;SDS011;55510;49.560;19.090;2024-03-02T12:50:42;50.05;;;26.92;;
68507;SDS011;55510;49.560;19.090;2024-03-02T12:53:44;55.00;;;33.05;;
68507;SDS011;55510;49.560;19.090;2024-03-02T12:56:45;54.77;;;29.53;;
68507;SDS011;55510;49.560;19.090;2024-03-02T12:59:46;51.47;;;29.08;;
68507;SDS011;55510;49.560;19.090;2024-03-02T13:02:47;55.13;;;31.70;;
68507;SDS011;55510;49.560;19.090;2024-03-02T13:05:51;44.70;;;27.37;;
68507;SDS011;55510;49.560;19.090;2024-03-02T13:08:53;49.90;;;29.58;;
68507;SDS011;55510;49.560;19.090;2024-03-02T13:11:55;59.55;;;36.00;;
68507;SDS011;55510;49.560;19.090;2024-03-02T13:14:57;50.70;;;30.73;;
68507;SDS011;55510;49.560;19.090;2024-03-02T13:17:59;41.83;;;23.33;;
68507;SDS011;55510;49.560;19.090;2024-03-02T13:21:00;59.50;;;30.40;;
68507;SDS011;55510;49.560;19.090;2024-03-02T13:24:01;44.38;;;23.75;;
68507;SDS011;55510;49.560;19.090;2024-03-02T13:27:02;29.63;;;15.30;;
68507;SDS011;55510;49.560;19.090;2024-03-02T13:30:04;61.60;;;34.57;;
68507;SDS011;55510;49.560;19.090;2024-03-02T13:33:08;91.00;;;53.03;;
68507;SDS011;55510;49.560;19.090;2024-03-02T13:36:10;108.50;;;63.95;;
68507;SDS011;55510;49.560;19.090;2024-03-02T13:39:10;133.97;;;73.17;;
68507;SDS011;55510;49.560;19.090;2024-03-02T13:42:11;117.40;;;66.47;;
68507;SDS011;55510;49.560;19.090;2024-03-02T13:45:15;84.82;;;48.60;;
68507;SDS011;55510;49.560;19.090;2024-03-02T13:48:16;82.73;;;48.40;;
68507;SDS011;55510;49.560;19.090;2024-03-02T13:51:16;72.90;;;40.55;;
68507;SDS011;55510;49.560;19.090;2024-03-02T13:54:17;71.80;;;42.67;;
68507;SDS011;55510;49.560;19.090;2024-03-02T13:57:18;66.43;;;39.47;;
68507;SDS011;55510;49.560;19.090;2024-03-02T14:00:20;65.53;;;38.92;;
68507;SDS011;55510;49.560;19.090;2024-03-02T14:03:21;71.85;;;39.50;;
68507;SDS011;55510;49.560;19.090;2024-03-02T14:06:23;69.80;;;38.00;;
68507;SDS011;55510;49.560;19.090;2024-03-02T14:09:24;66.80;;;36.20;;
68507;SDS011;55510;49.560;19.090;2024-03-02T14:12:25;60.25;;;32.75;;
68507;SDS011;55510;49.560;19.090;2024-03-02T14:15:25;59.23;;;34.30;;
68507;SDS011;55510;49.560;19.090;2024-03-02T14:18:26;74.50;;;38.43;;
68507;SDS011;55510;49.560;19.090;2024-03-02T14:21:26;63.28;;;34.88;;
68507;SDS011;55510;49.560;19.090;2024-03-02T14:24:27;66.73;;;36.87;;
68507;SDS011;55510;49.560;19.090;2024-03-02T14:27:29;75.28;;;43.25;;
68507;SDS011;55510;49.560;19.090;2024-03-02T14:30:30;76.30;;;41.95;;
68507;SDS011;55510;49.560;19.090;2024-03-02T14:33:30;84.03;;;43.23;;
68507;SDS011;55510;49.560;19.090;2024-03-02T14:36:31;157.45;;;82.57;;
68507;SDS011;55510;49.560;19.090;2024-03-02T14:39:32;173.43;;;81.40;;
68507;SDS011;55510;49.560;19.090;2024-03-02T14:42:35;199.18;;;87.28;;
68507;SDS011;55510;49.560;19.090;2024-03-02T14:45:36;165.85;;;76.07;;
68507;SDS011;55510;49.560;19.090;2024-03-02T14:48:37;109.30;;;56.30;;
68507;SDS011;55510;49.560;19.090;2024-03-02T14:51:38;85.30;;;43.25;;
68507;SDS011;55510;49.560;19.090;2024-03-02T14:54:39;83.18;;;44.80;;
68507;SDS011;55510;49.560;19.090;2024-03-02T14:57:39;84.13;;;43.47;;
68507;SDS011;55510;49.560;19.090;2024-03-02T15:00:40;77.38;;;40.38;;
68507;SDS011;55510;49.560;19.090;2024-03-02T15:03:41;69.00;;;37.43;;
68507;SDS011;55510;49.560;19.090;2024-03-02T15:06:42;72.28;;;38.22;;
68507;SDS011;55510;49.560;19.090;2024-03-02T15:09:43;82.70;;;41.47;;
68507;SDS011;55510;49.560;19.090;2024-03-02T15:12:45;83.75;;;44.10;;
68507;SDS011;55510;49.560;19.090;2024-03-02T15:15:45;90.97;;;47.60;;
68507;SDS011;55510;49.560;19.090;2024-03-02T15:18:46;80.77;;;41.30;;
68507;SDS011;55510;49.560;19.090;2024-03-02T15:21:47;75.00;;;39.17;;
68507;SDS011;55510;49.560;19.090;2024-03-02T15:24:48;76.60;;;40.17;;
68507;SDS011;55510;49.560;19.090;2024-03-02T15:27:49;126.00;;;67.32;;
68507;SDS011;55510;49.560;19.090;2024-03-02T15:30:49;103.90;;;54.67;;
68507;SDS011;55510;49.560;19.090;2024-03-02T15:33:50;116.18;;;60.70;;
68507;SDS011;55510;49.560;19.090;2024-03-02T15:36:51;111.13;;;56.47;;
68507;SDS011;55510;49.560;19.090;2024-03-02T15:39:51;102.60;;;55.00;;
68507;SDS011;55510;49.560;19.090;2024-03-02T15:42:52;95.67;;;48.67;;
68507;SDS011;55510;49.560;19.090;2024-03-02T15:45:53;98.50;;;53.63;;
68507;SDS011;55510;49.560;19.090;2024-03-02T15:48:53;102.38;;;55.38;;
68507;SDS011;55510;49.560;19.090;2024-03-02T15:51:55;126.57;;;71.45;;
68507;SDS011;55510;49.560;19.090;2024-03-02T15:54:56;121.30;;;65.37;;
68507;SDS011;55510;49.560;19.090;2024-03-02T15:57:56;149.20;;;80.67;;
68507;SDS011;55510;49.560;19.090;2024-03-02T16:00:57;158.40;;;85.50;;
68507;SDS011;55510;49.560;19.090;2024-03-02T16:03:58;145.48;;;80.47;;
68507;SDS011;55510;49.560;19.090;2024-03-02T16:06:59;139.87;;;74.13;;
68507;SDS011;55510;49.560;19.090;2024-03-02T16:09:59;171.37;;;94.63;;
68507;SDS011;55510;49.560;19.090;2024-03-02T16:13:04;200.10;;;100.37;;
68507;SDS011;55510;49.560;19.090;2024-03-02T16:16:05;153.10;;;81.90;;
68507;SDS011;55510;49.560;19.090;2024-03-02T16:19:06;131.82;;;68.32;;
68507;SDS011;55510;49.560;19.090;2024-03-02T16:22:07;134.13;;;67.43;;
68507;SDS011;55510;49.560;19.090;2024-03-02T16:25:11;133.10;;;69.72;;
68507;SDS011;55510;49.560;19.090;2024-03-02T16:28:12;122.57;;;61.97;;
68507;SDS011;55510;49.560;19.090;2024-03-02T16:31:13;124.90;;;64.30;;
68507;SDS011;55510;49.560;19.090;2024-03-02T16:34:15;120.38;;;63.30;;
68507;SDS011;55510;49.560;19.090;2024-03-02T16:37:16;107.13;;;56.50;;
68507;SDS011;55510;49.560;19.090;2024-03-02T16:40:16;101.13;;;52.60;;
68507;SDS011;55510;49.560;19.090;2024-03-02T16:43:17;94.03;;;49.67;;
68507;SDS011;55510;49.560;19.090;2024-03-02T16:46:18;94.70;;;48.97;;
68507;SDS011;55510;49.560;19.090;2024-03-02T16:49:19;107.05;;;56.60;;
68507;SDS011;55510;49.560;19.090;2024-03-02T16:52:20;167.63;;;84.88;;
68507;SDS011;55510;49.560;19.090;2024-03-02T16:55:24;162.87;;;84.10;;
68507;SDS011;55510;49.560;19.090;2024-03-02T16:58:25;180.32;;;92.22;;
68507;SDS011;55510;49.560;19.090;2024-03-02T17:01:25;150.17;;;74.47;;
68507;SDS011;55510;49.560;19.090;2024-03-02T17:04:27;142.43;;;68.40;;
68507;SDS011;55510;49.560;19.090;2024-03-02T17:07:28;125.38;;;61.13;;
68507;SDS011;55510;49.560;19.090;2024-03-02T17:10:29;120.45;;;57.22;;
68507;SDS011;55510;49.560;19.090;2024-03-02T17:13:30;104.37;;;51.87;;
68507;SDS011;55510;49.560;19.090;2024-03-02T17:16:31;99.60;;;50.60;;
68507;SDS011;55510;49.560;19.090;2024-03-02T17:19:31;100.30;;;50.00;;
68507;SDS011;55510;49.560;19.090;2024-03-02T17:22:32;147.67;;;79.27;;
68507;SDS011;55510;49.560;19.090;2024-03-02T17:25:33;122.38;;;63.45;;
68507;SDS011;55510;49.560;19.090;2024-03-02T17:28:33;132.40;;;69.23;;
68507;SDS011;55510;49.560;19.090;2024-03-02T17:31:34;142.93;;;76.00;;
68507;SDS011;55510;49.560;19.090;2024-03-02T17:34:35;120.47;;;61.67;;
68507;SDS011;55510;49.560;19.090;2024-03-02T17:37:35;129.33;;;68.03;;
68507;SDS011;55510;49.560;19.090;2024-03-02T17:40:40;134.60;;;71.77;;
68507;SDS011;55510;49.560;19.090;2024-03-02T17:43:42;134.07;;;72.22;;
68507;SDS011;55510;49.560;19.090;2024-03-02T17:46:42;246.90;;;129.57;;
68507;SDS011;55510;49.560;19.090;2024-03-02T17:49:43;196.70;;;101.90;;
68507;SDS011;55510;49.560;19.090;2024-03-02T17:52:44;180.70;;;95.33;;
68507;SDS011;55510;49.560;19.090;2024-03-02T17:55:45;169.10;;;85.53;;
68507;SDS011;55510;49.560;19.090;2024-03-02T17:58:45;161.97;;;81.03;;
68507;SDS011;55510;49.560;19.090;2024-03-02T18:01:46;141.40;;;68.00;;
68507;SDS011;55510;49.560;19.090;2024-03-02T18:04:46;128.77;;;64.17;;
68507;SDS011;55510;49.560;19.090;2024-03-02T18:07:47;113.40;;;56.88;;
68507;SDS011;55510;49.560;19.090;2024-03-02T18:10:48;89.00;;;45.00;;
68507;SDS011;55510;49.560;19.090;2024-03-02T18:13:48;114.93;;;56.17;;
68507;SDS011;55510;49.560;19.090;2024-03-02T18:16:51;248.83;;;96.53;;
68507;SDS011;55510;49.560;19.090;2024-03-02T18:19:52;180.83;;;90.03;;
68507;SDS011;55510;49.560;19.090;2024-03-02T18:22:53;153.13;;;71.40;;
68507;SDS011;55510;49.560;19.090;2024-03-02T18:25:57;95.68;;;44.83;;
68507;SDS011;55510;49.560;19.090;2024-03-02T18:28:57;71.30;;;34.57;;
68507;SDS011;55510;49.560;19.090;2024-03-02T18:31:58;74.23;;;36.77;;
68507;SDS011;55510;49.560;19.090;2024-03-02T18:35:00;78.10;;;36.25;;
68507;SDS011;55510;49.560;19.090;2024-03-02T18:38:01;71.93;;;35.13;;
68507;SDS011;55510;49.560;19.090;2024-03-02T18:41:01;70.27;;;34.83;;
68507;SDS011;55510;49.560;19.090;2024-03-02T18:44:02;90.28;;;44.20;;
68507;SDS011;55510;49.560;19.090;2024-03-02T18:47:06;77.47;;;36.23;;
68507;SDS011;55510;49.560;19.090;2024-03-02T18:50:06;71.30;;;33.37;;
68507;SDS011;55510;49.560;19.090;2024-03-02T18:53:10;75.80;;;35.60;;
68507;SDS011;55510;49.560;19.090;2024-03-02T18:56:11;95.72;;;44.50;;
68507;SDS011;55510;49.560;19.090;2024-03-02T18:59:12;118.43;;;51.33;;
68507;SDS011;55510;49.560;19.090;2024-03-02T19:02:13;111.87;;;52.40;;
68507;SDS011;55510;49.560;19.090;2024-03-02T19:05:13;92.13;;;45.75;;
68507;SDS011;55510;49.560;19.090;2024-03-02T19:08:14;77.17;;;38.80;;
68507;SDS011;55510;49.560;19.090;2024-03-02T19:11:18;103.20;;;50.28;;
68507;SDS011;55510;49.560;19.090;2024-03-02T19:14:19;168.88;;;70.28;;
68507;SDS011;55510;49.560;19.090;2024-03-02T19:17:19;176.77;;;71.60;;
68507;SDS011;55510;49.560;19.090;2024-03-02T19:20:20;135.20;;;57.43;;
68507;SDS011;55510;49.560;19.090;2024-03-02T19:23:22;119.90;;;51.03;;
68507;SDS011;55510;49.560;19.090;2024-03-02T19:26:23;90.63;;;41.20;;
68507;SDS011;55510;49.560;19.090;2024-03-02T19:29:24;120.77;;;53.03;;
68507;SDS011;55510;49.560;19.090;2024-03-02T19:32:29;112.97;;;48.97;;
68507;SDS011;55510;49.560;19.090;2024-03-02T19:35:30;124.72;;;58.13;;
68507;SDS011;55510;49.560;19.090;2024-03-02T19:38:31;107.45;;;49.08;;
68507;SDS011;55510;49.560;19.090;2024-03-02T19:41:33;106.18;;;48.05;;
68507;SDS011;55510;49.560;19.090;2024-03-02T19:44:34;111.60;;;52.63;;
68507;SDS011;55510;49.560;19.090;2024-03-02T19:47:35;125.67;;;56.00;;
68507;SDS011;55510;49.560;19.090;2024-03-02T19:50:36;150.23;;;75.88;;
68507;SDS011;55510;49.560;19.090;2024-03-02T19:53:39;155.57;;;78.03;;
68507;SDS011;55510;49.560;19.090;2024-03-02T19:56:40;164.65;;;79.00;;
68507;SDS011;55510;49.560;19.090;2024-03-02T19:59:41;181.17;;;91.70;;
68507;SDS011;55510;49.560;19.090;2024-03-02T20:02:41;176.20;;;90.73;;
68507;SDS011;55510;49.560;19.090;2024-03-02T20:05:42;162.82;;;82.70;;
68507;SDS011;55510;49.560;19.090;2024-03-02T20:08:43;140.53;;;68.27;;
68507;SDS011;55510;49.560;19.090;2024-03-02T20:11:43;127.75;;;62.20;;
68507;SDS011;55510;49.560;19.090;2024-03-02T20:14:45;128.50;;;65.40;;
68507;SDS011;55510;49.560;19.090;2024-03-02T20:17:45;139.27;;;69.00;;
68507;SDS011;55510;49.560;19.090;2024-03-02T20:20:46;129.87;;;63.37;;
68507;SDS011;55510;49.560;19.090;2024-03-02T20:23:47;119.47;;;59.85;;
68507;SDS011;55510;49.560;19.090;2024-03-02T20:26:48;100.20;;;50.40;;
68507;SDS011;55510;49.560;19.090;2024-03-02T20:29:49;92.38;;;45.65;;
68507;SDS011;55510;49.560;19.090;2024-03-02T20:32:50;82.83;;;39.40;;
68507;SDS011;55510;49.560;19.090;2024-03-02T20:35:50;79.13;;;37.37;;
68507;SDS011;55510;49.560;19.090;2024-03-02T20:38:51;63.30;;;32.13;;
68507;SDS011;55510;49.560;19.090;2024-03-02T20:41:51;50.13;;;20.73;;
68507;SDS011;55510;49.560;19.090;2024-03-02T20:44:52;58.08;;;25.55;;
68507;SDS011;55510;49.560;19.090;2024-03-02T20:47:53;50.67;;;21.87;;
68507;SDS011;55510;49.560;19.090;2024-03-02T20:50:53;44.25;;;20.90;;
68507;SDS011;55510;49.560;19.090;2024-03-02T20:53:55;41.37;;;19.63;;
68507;SDS011;55510;49.560;19.090;2024-03-02T20:56:57;43.65;;;21.33;;
68507;SDS011;55510;49.560;19.090;2024-03-02T20:59:58;57.08;;;27.65;;
68507;SDS011;55510;49.560;19.090;2024-03-02T21:02:58;49.97;;;23.50;;
68507;SDS011;55510;49.560;19.090;2024-03-02T21:05:59;58.00;;;26.13;;
68507;SDS011;55510;49.560;19.090;2024-03-02T21:09:01;45.87;;;19.37;;
68507;SDS011;55510;49.560;19.090;2024-03-02T21:12:02;46.40;;;23.85;;
68507;SDS011;55510;49.560;19.090;2024-03-02T21:15:05;48.38;;;22.38;;
68507;SDS011;55510;49.560;19.090;2024-03-02T21:18:06;49.45;;;24.60;;
68507;SDS011;55510;49.560;19.090;2024-03-02T21:21:07;62.10;;;29.50;;
68507;SDS011;55510;49.560;19.090;2024-03-02T21:24:07;61.95;;;27.33;;
68507;SDS011;55510;49.560;19.090;2024-03-02T21:27:09;58.00;;;28.17;;
68507;SDS011;55510;49.560;19.090;2024-03-02T21:30:10;63.55;;;27.77;;
68507;SDS011;55510;49.560;19.090;2024-03-02T21:33:12;31.58;;;14.25;;
68507;SDS011;55510;49.560;19.090;2024-03-02T21:36:12;33.93;;;14.83;;
68507;SDS011;55510;49.560;19.090;2024-03-02T21:39:14;45.58;;;22.13;;
68507;SDS011;55510;49.560;19.090;2024-03-02T21:42:14;40.80;;;19.37;;
68507;SDS011;55510;49.560;19.090;2024-03-02T21:45:16;43.00;;;22.37;;
68507;SDS011;55510;49.560;19.090;2024-03-02T21:48:17;36.55;;;18.88;;
68507;SDS011;55510;49.560;19.090;2024-03-02T21:51:18;39.83;;;21.92;;
68507;SDS011;55510;49.560;19.090;2024-03-02T21:54:19;43.67;;;20.50;;
68507;SDS011;55510;49.560;19.090;2024-03-02T21:57:20;37.85;;;18.75;;
68507;SDS011;55510;49.560;19.090;2024-03-02T22:00:20;21.03;;;10.00;;
68507;SDS011;55510;49.560;19.090;2024-03-02T22:03:21;40.97;;;20.13;;
68507;SDS011;55510;49.560;19.090;2024-03-02T22:06:22;25.87;;;10.00;;
68507;SDS011;55510;49.560;19.090;2024-03-02T22:09:23;17.65;;;8.00;;
68507;SDS011;55510;49.560;19.090;2024-03-02T22:12:24;19.58;;;8.55;;
68507;SDS011;55510;49.560;19.090;2024-03-02T22:15:25;22.33;;;9.33;;
68507;SDS011;55510;49.560;19.090;2024-03-02T22:18:25;21.58;;;11.25;;
68507;SDS011;55510;49.560;19.090;2024-03-02T22:21:26;25.53;;;10.73;;
68507;SDS011;55510;49.560;19.090;2024-03-02T22:24:26;37.67;;;16.33;;
68507;SDS011;55510;49.560;19.090;2024-03-02T22:27:27;41.33;;;19.48;;
68507;SDS011;55510;49.560;19.090;2024-03-02T22:30:28;35.53;;;16.23;;
68507;SDS011;55510;49.560;19.090;2024-03-02T22:33:29;41.97;;;19.42;;
68507;SDS011;55510;49.560;19.090;2024-03-02T22:36:29;37.87;;;18.50;;
68507;SDS011;55510;49.560;19.090;2024-03-02T22:39:31;40.72;;;17.95;;
68507;SDS011;55510;49.560;19.090;2024-03-02T22:42:31;38.87;;;18.33;;
68507;SDS011;55510;49.560;19.090;2024-03-02T22:45:32;42.17;;;18.65;;
68507;SDS011;55510;49.560;19.090;2024-03-02T22:48:32;16.83;;;7.70;;
68507;SDS011;55510;49.560;19.090;2024-03-02T22:51:33;13.90;;;5.50;;
68507;SDS011;55510;49.560;19.090;2024-03-02T22:54:34;9.17;;;3.87;;
68507;SDS011;55510;49.560;19.090;2024-03-02T22:57:34;6.27;;;2.50;;
68507;SDS011;55510;49.560;19.090;2024-03-02T23:00:35;8.00;;;2.92;;
68507;SDS011;55510;49.560;19.090;2024-03-02T23:03:47;6.47;;;2.70;;
68507;SDS011;55510;49.560;19.090;2024-03-02T23:06:48;6.77;;;3.83;;
68507;SDS011;55510;49.560;19.090;2024-03-02T23:09:48;5.40;;;1.90;;
68507;SDS011;55510;49.560;19.090;2024-03-02T23:12:49;6.70;;;3.20;;
68507;SDS011;55510;49.560;19.090;2024-03-02T23:15:50;10.73;;;6.23;;
68507;SDS011;55510;49.560;19.090;2024-03-02T23:18:51;7.43;;;3.97;;
68507;SDS011;55510;49.560;19.090;2024-03-02T23:21:52;7.60;;;2.60;;
68507;SDS011;55510;49.560;19.090;2024-03-02T23:24:52;8.83;;;3.70;;
68507;SDS011;55510;49.560;19.090;2024-03-02T23:27:54;7.18;;;3.33;;
68507;SDS011;55510;49.560;19.090;2024-03-02T23:30:54;9.43;;;4.50;;
68507;SDS011;55510;49.560;19.090;2024-03-02T23:33:55;7.13;;;3.13;;
68507;SDS011;55510;49.560;19.090;2024-03-02T23:36:59;7.45;;;4.00;;
68507;SDS011;55510;49.560;19.090;2024-03-02T23:40:00;8.07;;;3.90;;
68507;SDS011;55510;49.560;19.090;2024-03-02T23:43:01;10.60;;;3.43;;
68507;SDS011;55510;49.560;19.090;2024-03-02T23:46:04;6.10;;;2.90;;
68507;SDS011;55510;49.560;19.090;2024-03-02T23:49:05;7.20;;;3.20;;
68507;SDS011;55510;49.560;19.090;2024-03-02T23:52:07;6.68;;;3.08;;
68507;SDS011;55510;49.560;19.090;2024-03-02T23:55:08;8.32;;;2.75;;
68507;SDS011;55510;49.560;19.090;2024-03-02T23:58:09;9.67;;;3.07;;
